createdAt,value
2022-07-30T00:01:55.651Z,97943.84
2022-07-30T00:11:57.895Z,97929.19
2022-07-30T00:22:04.007Z,97933.81
2022-07-30T00:32:06.672Z,97931.84
2022-07-30T00:42:09.061Z,97940.44
2022-07-30T00:52:11.332Z,97926.09
2022-07-30T01:02:13.635Z,97923.00
2022-07-30T01:12:20.209Z,97932.16
2022-07-30T01:22:31.151Z,97933.91
2022-07-30T01:32:37.009Z,97914.97
2022-07-30T01:42:41.205Z,97931.53
2022-07-30T01:52:46.160Z,97917.84
2022-07-30T02:02:51.499Z,97920.44
2022-07-30T02:12:56.977Z,97936.00
2022-07-30T02:23:03.735Z,97930.31
2022-07-30T02:33:10.846Z,97946.22
2022-07-30T02:43:16.835Z,97956.66
2022-07-30T02:53:21.444Z,97959.19
2022-07-30T03:03:29.714Z,97952.47
2022-07-30T03:13:32.115Z,97953.66
2022-07-30T03:23:37.896Z,97957.00
2022-07-30T03:33:41.616Z,97954.09
2022-07-30T03:43:45.614Z,97971.22
2022-07-30T03:53:48.866Z,97968.81
2022-07-30T04:03:51.608Z,97978.91
2022-07-30T04:13:53.915Z,97976.78
2022-07-30T04:24:03.816Z,97982.47
2022-07-30T04:34:07.706Z,97990.34
2022-07-30T04:44:09.981Z,98006.91
2022-07-30T04:54:16.030Z,98013.63
2022-07-30T05:04:20.859Z,98021.13
2022-07-30T05:14:24.649Z,98035.63
2022-07-30T05:24:26.835Z,98036.19
2022-07-30T05:34:29.193Z,98040.47
2022-07-30T05:44:31.554Z,98046.56
2022-07-30T05:54:33.694Z,98050.87
2022-07-30T06:04:36.010Z,98057.84
2022-07-30T06:14:38.472Z,98064.84
2022-07-30T06:24:40.970Z,98057.47
2022-07-30T06:34:43.824Z,98054.78
2022-07-30T06:44:46.041Z,98072.59
2022-07-30T06:54:48.814Z,98078.91
2022-07-30T07:04:51.203Z,98074.03
2022-07-30T07:14:53.582Z,98080.75
2022-07-30T07:24:56.020Z,98094.50
2022-07-30T07:34:59.363Z,98102.81
2022-07-30T07:45:04.326Z,98105.72
2022-07-30T07:55:07.825Z,98102.41
2022-07-30T08:05:12.968Z,98103.81
2022-07-30T08:15:17.082Z,98104.06
2022-07-30T08:25:24.451Z,98103.41
2022-07-30T08:35:27.058Z,98110.87
2022-07-30T08:45:34.581Z,98110.53
2022-07-30T08:55:38.425Z,98111.34
2022-07-30T09:05:40.971Z,98109.00
2022-07-30T09:15:43.667Z,98115.72
2022-07-30T09:25:48.438Z,98102.50
2022-07-30T09:35:56.916Z,98119.19
2022-07-30T09:46:01.601Z,98117.25
2022-07-30T09:56:30.048Z,98103.03
2022-07-30T10:06:34.442Z,98094.16
2022-07-30T10:16:36.982Z,98102.50
2022-07-30T10:26:41.559Z,98106.62
2022-07-30T10:36:51.873Z,98101.31
2022-07-30T10:47:07.657Z,98097.97
2022-07-30T10:57:31.912Z,98094.44
2022-07-30T11:07:36.720Z,98096.44
2022-07-30T11:17:59.516Z,98088.41
2022-07-30T11:28:02.296Z,98093.22
2022-07-30T11:38:18.926Z,98082.53
2022-07-30T11:48:21.824Z,98083.91
2022-07-30T11:58:27.309Z,98085.88
2022-07-30T12:08:31.715Z,98080.97
2022-07-30T12:18:40.470Z,98079.53
2022-07-30T12:28:44.072Z,98073.50
2022-07-30T12:38:52.571Z,98072.19
2022-07-30T12:49:13.419Z,98065.66
2022-07-30T12:59:27.129Z,98074.44
2022-07-30T13:09:30.154Z,98057.06
2022-07-30T13:19:34.101Z,98056.78
2022-07-30T13:29:38.939Z,98042.69
2022-07-30T13:39:47.224Z,98048.19
2022-07-30T13:49:51.926Z,98048.00
2022-07-30T13:59:54.395Z,98036.63
2022-07-30T14:09:56.999Z,98029.66
2022-07-30T14:20:01.556Z,98026.28
2022-07-30T14:30:06.946Z,98020.78
2022-07-30T14:40:17.895Z,98015.19
2022-07-30T14:50:20.617Z,98007.31
2022-07-30T15:00:24.429Z,98015.78
2022-07-30T15:10:27.209Z,98011.31
2022-07-30T15:20:30.885Z,97993.81
2022-07-30T15:30:33.542Z,97992.56
2022-07-30T15:40:36.437Z,97981.00
2022-07-30T15:50:43.069Z,97974.47
2022-07-30T16:00:45.600Z,97973.16
2022-07-30T16:10:48.837Z,97966.22
2022-07-30T16:20:51.305Z,97966.03
2022-07-30T16:30:54.367Z,97962.62
2022-07-30T16:40:57.201Z,97953.56
2022-07-30T16:51:00.464Z,97951.44
2022-07-30T17:01:03.398Z,97954.16
2022-07-30T17:11:09.313Z,97943.47
2022-07-30T17:21:12.629Z,97944.59
2022-07-30T17:31:16.343Z,97947.34
2022-07-30T17:41:18.835Z,97952.66
2022-07-30T17:51:21.680Z,97951.66
2022-07-30T18:01:26.633Z,97965.50
2022-07-30T18:11:29.149Z,97966.22
2022-07-30T18:21:32.202Z,97969.50
2022-07-30T18:31:35.781Z,97964.94
2022-07-30T18:41:38.085Z,97963.06
2022-07-30T18:51:40.828Z,97964.06
2022-07-30T19:01:44.522Z,97968.38
2022-07-30T19:11:47.333Z,97967.63
2022-07-30T19:21:50.533Z,97976.03
2022-07-30T19:31:52.816Z,97987.31
2022-07-30T19:41:55.563Z,98002.09
2022-07-30T19:52:10.647Z,98011.03
2022-07-30T20:02:22.421Z,98015.97
2022-07-30T20:12:25.164Z,98028.19
2022-07-30T20:22:29.654Z,98029.25
2022-07-30T20:32:32.242Z,98037.50
2022-07-30T20:42:35.831Z,98026.28
2022-07-30T20:52:40.831Z,98035.03
2022-07-30T21:02:46.441Z,98043.75
2022-07-30T21:12:50.836Z,98043.81
2022-07-30T21:22:56.611Z,98045.47
2022-07-30T21:33:01.728Z,98054.38
2022-07-30T21:43:04.548Z,98052.63
2022-07-30T21:53:10.870Z,98057.91
2022-07-30T22:04:00.612Z,98055.28
2022-07-30T22:13:53.479Z,98057.41
2022-07-30T22:23:58.452Z,98042.53
2022-07-30T22:34:01.222Z,98066.53
2022-07-30T22:44:03.909Z,98061.47
2022-07-30T22:54:13.057Z,98063.19
2022-07-30T23:04:15.835Z,98073.84
2022-07-30T23:14:18.548Z,98077.38
2022-07-30T23:24:21.091Z,98084.44
2022-07-30T23:34:23.551Z,98084.16
2022-07-30T23:44:25.924Z,98077.47
2022-07-30T23:54:29.271Z,98076.09
